EWG1A LHBP-EDDL
Flight info
| Callsign | EWG1A |
|---|---|
| Flight time | 1h 44m |
| Altitude | 36000 |
| Route | GILEP DCT ZOLKU DCT BEGLA DCT DEXIT DCT RODIS DCT TESDU DCT AMETU T852 EKSAK/N0383F260 T852 KULIX/N0372F240 T852 TINSA T854 DOMUX DOMUX1A |
| Aircraft | A319/M-SDE3FGHIRWY/LB1 |
Departure
| Time | 2026-05-04 17:59 |
|---|---|
| Airport | Budapest Liszt Ferenc International Airport (LHBP) |
Arrival
| Time | 2026-05-04 19:44 |
|---|---|
| Airport | Düsseldorf Airport (EDDL) |
| Time | Latitude | Longitude | Altitude | Speed | Heading |
|---|---|---|---|---|---|
| 2026-05-04 17:34 | 47.43560 | 19.26387 | 476 ft | 0 kts | 222° |
| 2026-05-04 17:50 | 47.43561 | 19.26388 | 482 ft | 2 kts | 222° |
| 2026-05-04 17:50 | 47.43575 | 19.26407 | 474 ft | 3 kts | 222° |
| 2026-05-04 17:50 | 47.43589 | 19.26425 | 475 ft | 3 kts | 234° |
| 2026-05-04 17:51 | 47.43594 | 19.26448 | 476 ft | 3 kts | 307° |
| 2026-05-04 17:51 | 47.43592 | 19.26451 | 476 ft | 0 kts | 306° |
| 2026-05-04 17:53 | 47.43600 | 19.26438 | 482 ft | 5 kts | 311° |
| 2026-05-04 17:54 | 47.43640 | 19.26376 | 481 ft | 11 kts | 314° |
| 2026-05-04 17:54 | 47.43708 | 19.26362 | 481 ft | 12 kts | 39° |
| 2026-05-04 17:54 | 47.43782 | 19.26423 | 481 ft | 13 kts | 348° |
| 2026-05-04 17:54 | 47.43848 | 19.26318 | 476 ft | 15 kts | 311° |
| 2026-05-04 17:55 | 47.43919 | 19.26212 | 477 ft | 14 kts | 331° |
| 2026-05-04 17:55 | 47.43972 | 19.26233 | 486 ft | 0 kts | 41° |
| 2026-05-04 17:56 | 47.43981 | 19.26244 | 483 ft | 5 kts | 42° |
| 2026-05-04 17:56 | 47.43997 | 19.26266 | 485 ft | 0 kts | 42° |
| 2026-05-04 17:57 | 47.44043 | 19.26331 | 483 ft | 14 kts | 50° |
| 2026-05-04 17:57 | 47.44071 | 19.26483 | 481 ft | 17 kts | 83° |
| 2026-05-04 17:58 | 47.44050 | 19.26554 | 479 ft | 0 kts | 128° |
| 2026-05-04 17:58 | 47.44029 | 19.26590 | 482 ft | 20 kts | 133° |
| 2026-05-04 17:58 | 47.43799 | 19.26959 | 490 ft | 77 kts | 133° |
| 2026-05-04 17:59 | 47.43304 | 19.27757 | 470 ft | 133 kts | 133° |
| 2026-05-04 17:59 | 47.42589 | 19.28856 | 811 ft | 149 kts | 137° |
| 2026-05-04 17:59 | 47.41276 | 19.31170 | 1917 ft | 156 kts | 126° |
| 2026-05-04 18:00 | 47.40735 | 19.32623 | 2266 ft | 175 kts | 122° |
| 2026-05-04 18:00 | 47.40134 | 19.34360 | 2615 ft | 198 kts | 121° |
| 2026-05-04 18:00 | 47.39461 | 19.36327 | 2896 ft | 229 kts | 121° |
| 2026-05-04 18:00 | 47.38688 | 19.38475 | 3598 ft | 242 kts | 122° |
| 2026-05-04 18:01 | 47.37590 | 19.40444 | 4143 ft | 259 kts | 149° |
| 2026-05-04 18:01 | 47.35876 | 19.41192 | 5022 ft | 261 kts | 182° |
| 2026-05-04 18:01 | 47.34197 | 19.40381 | 5990 ft | 264 kts | 214° |
| 2026-05-04 18:02 | 47.32297 | 19.35693 | 7847 ft | 271 kts | 249° |
| 2026-05-04 18:02 | 47.31675 | 19.33085 | 8711 ft | 276 kts | 250° |
| 2026-05-04 18:02 | 47.31062 | 19.30379 | 9612 ft | 280 kts | 251° |
| 2026-05-04 18:02 | 47.30503 | 19.27599 | 10316 ft | 292 kts | 258° |
| 2026-05-04 18:03 | 47.30640 | 19.24498 | 10583 ft | 319 kts | 287° |
| 2026-05-04 18:03 | 47.31473 | 19.21397 | 11182 ft | 329 kts | 291° |
| 2026-05-04 18:03 | 47.32324 | 19.18245 | 11930 ft | 333 kts | 290° |
| 2026-05-04 18:03 | 47.33168 | 19.15037 | 12711 ft | 337 kts | 290° |
| 2026-05-04 18:04 | 47.34005 | 19.11795 | 13488 ft | 340 kts | 289° |
| 2026-05-04 18:04 | 47.34843 | 19.08511 | 14215 ft | 344 kts | 289° |
| 2026-05-04 18:04 | 47.36532 | 19.01847 | 15583 ft | 350 kts | 290° |
| 2026-05-04 18:05 | 47.37096 | 18.99615 | 16046 ft | 352 kts | 289° |
| 2026-05-04 18:05 | 47.37956 | 18.96218 | 16748 ft | 354 kts | 289° |
| 2026-05-04 18:05 | 47.38820 | 18.92805 | 17454 ft | 356 kts | 289° |
| 2026-05-04 18:05 | 47.39693 | 18.89362 | 18139 ft | 359 kts | 290° |
| 2026-05-04 18:06 | 47.41468 | 18.82386 | 19329 ft | 366 kts | 290° |
| 2026-05-04 18:06 | 47.42363 | 18.78854 | 19941 ft | 368 kts | 290° |
| 2026-05-04 18:06 | 47.43265 | 18.75282 | 20495 ft | 372 kts | 290° |
| 2026-05-04 18:07 | 47.44170 | 18.71688 | 21089 ft | 375 kts | 290° |
| 2026-05-04 18:07 | 47.45082 | 18.68063 | 21672 ft | 378 kts | 290° |
| 2026-05-04 18:07 | 47.45999 | 18.64413 | 22274 ft | 380 kts | 290° |
| 2026-05-04 18:07 | 47.46922 | 18.60733 | 22821 ft | 383 kts | 289° |
| 2026-05-04 18:08 | 47.47849 | 18.57033 | 23421 ft | 386 kts | 290° |
| 2026-05-04 18:08 | 47.48782 | 18.53298 | 23929 ft | 388 kts | 290° |
| 2026-05-04 18:08 | 47.49704 | 18.49598 | 24387 ft | 391 kts | 290° |
| 2026-05-04 18:08 | 47.50661 | 18.45761 | 24819 ft | 394 kts | 290° |
| 2026-05-04 18:09 | 47.52552 | 18.38166 | 25700 ft | 399 kts | 290° |
| 2026-05-04 18:09 | 47.54477 | 18.30390 | 26579 ft | 404 kts | 290° |
| 2026-05-04 18:10 | 47.55443 | 18.26471 | 27016 ft | 406 kts | 290° |
| 2026-05-04 18:10 | 47.56408 | 18.22535 | 27476 ft | 408 kts | 290° |
| 2026-05-04 18:10 | 47.57379 | 18.18579 | 27935 ft | 409 kts | 290° |
| 2026-05-04 18:10 | 47.58355 | 18.14609 | 28352 ft | 412 kts | 290° |
| 2026-05-04 18:11 | 47.59337 | 18.10604 | 28750 ft | 415 kts | 290° |
| 2026-05-04 18:11 | 47.60323 | 18.06570 | 29174 ft | 418 kts | 290° |
| 2026-05-04 18:11 | 47.61316 | 18.02503 | 29555 ft | 421 kts | 290° |
| 2026-05-04 18:11 | 47.62312 | 17.98413 | 29940 ft | 424 kts | 290° |
| 2026-05-04 18:12 | 47.63317 | 17.94288 | 30307 ft | 426 kts | 290° |
| 2026-05-04 18:12 | 47.64325 | 17.90152 | 30639 ft | 428 kts | 290° |
| 2026-05-04 18:12 | 47.65337 | 17.85989 | 30964 ft | 430 kts | 290° |
| 2026-05-04 18:12 | 47.66350 | 17.81804 | 31294 ft | 432 kts | 290° |
| 2026-05-04 18:13 | 47.67363 | 17.77600 | 31630 ft | 434 kts | 290° |
| 2026-05-04 18:13 | 47.68377 | 17.73391 | 32076 ft | 432 kts | 290° |
| 2026-05-04 18:13 | 47.70384 | 17.65035 | 33078 ft | 427 kts | 290° |
| 2026-05-04 18:14 | 47.71379 | 17.60892 | 33580 ft | 425 kts | 291° |
| 2026-05-04 18:14 | 47.72371 | 17.56754 | 33933 ft | 424 kts | 291° |
| 2026-05-04 18:14 | 47.73357 | 17.52632 | 33993 ft | 423 kts | 290° |
| 2026-05-04 18:15 | 47.77252 | 17.36283 | 33982 ft | 420 kts | 290° |
| 2026-05-04 18:16 | 47.79183 | 17.28086 | 33979 ft | 420 kts | 290° |
| 2026-05-04 18:16 | 47.81111 | 17.19884 | 33976 ft | 420 kts | 290° |
| 2026-05-04 18:17 | 47.83039 | 17.11662 | 34391 ft | 420 kts | 290° |
| 2026-05-04 18:17 | 47.84066 | 17.07596 | 34778 ft | 419 kts | 292° |
| 2026-05-04 18:17 | 47.86392 | 16.99676 | 35536 ft | 416 kts | 294° |
| 2026-05-04 18:18 | 47.87600 | 16.95760 | 35895 ft | 416 kts | 294° |
| 2026-05-04 18:18 | 47.88800 | 16.91840 | 36247 ft | 415 kts | 294° |
| 2026-05-04 18:18 | 47.89979 | 16.87922 | 36591 ft | 414 kts | 294° |
| 2026-05-04 18:18 | 47.91137 | 16.83992 | 36927 ft | 414 kts | 293° |
| 2026-05-04 18:19 | 47.93395 | 16.76178 | 37563 ft | 413 kts | 292° |
| 2026-05-04 18:19 | 47.94522 | 16.72243 | 37860 ft | 413 kts | 292° |
| 2026-05-04 18:19 | 47.95653 | 16.68295 | 37944 ft | 413 kts | 292° |
| 2026-05-04 18:20 | 47.97921 | 16.60413 | 37946 ft | 413 kts | 292° |
| 2026-05-04 18:20 | 48.00184 | 16.52534 | 37952 ft | 413 kts | 292° |
| 2026-05-04 18:21 | 48.02446 | 16.44642 | 37950 ft | 413 kts | 292° |
| 2026-05-04 18:21 | 48.04700 | 16.36749 | 37950 ft | 413 kts | 292° |
| 2026-05-04 18:22 | 48.06933 | 16.28883 | 37941 ft | 413 kts | 292° |
| 2026-05-04 18:22 | 48.09196 | 16.20887 | 37946 ft | 423 kts | 292° |
| 2026-05-04 18:23 | 48.11466 | 16.12837 | 37938 ft | 415 kts | 292° |
| 2026-05-04 18:23 | 48.13696 | 16.04900 | 37928 ft | 413 kts | 292° |
| 2026-05-04 18:24 | 48.15924 | 15.96969 | 37920 ft | 413 kts | 292° |
| 2026-05-04 18:24 | 48.18149 | 15.89035 | 37923 ft | 413 kts | 291° |
| 2026-05-04 18:25 | 48.20362 | 15.81076 | 37931 ft | 413 kts | 291° |
| 2026-05-04 18:25 | 48.22573 | 15.73107 | 37933 ft | 413 kts | 291° |
| 2026-05-04 18:26 | 48.24762 | 15.65205 | 37939 ft | 413 kts | 291° |
| 2026-05-04 18:26 | 48.26957 | 15.57245 | 37923 ft | 412 kts | 291° |
| 2026-05-04 18:27 | 48.29143 | 15.49286 | 37920 ft | 413 kts | 291° |
| 2026-05-04 18:27 | 48.31329 | 15.41308 | 37917 ft | 413 kts | 291° |
| 2026-05-04 18:28 | 48.33510 | 15.33322 | 37922 ft | 413 kts | 291° |
| 2026-05-04 18:28 | 48.35690 | 15.25319 | 37902 ft | 415 kts | 291° |
| 2026-05-04 18:29 | 48.37870 | 15.17288 | 37920 ft | 415 kts | 291° |
| 2026-05-04 18:29 | 48.40046 | 15.09231 | 37903 ft | 417 kts | 291° |
| 2026-05-04 18:30 | 48.43325 | 14.97074 | 37896 ft | 419 kts | 291° |
| 2026-05-04 18:31 | 48.45510 | 14.88930 | 37897 ft | 420 kts | 290° |
| 2026-05-04 18:31 | 48.47686 | 14.80761 | 37909 ft | 420 kts | 290° |
| 2026-05-04 18:32 | 48.49850 | 14.72630 | 37917 ft | 421 kts | 290° |
| 2026-05-04 18:32 | 48.52025 | 14.64436 | 37917 ft | 421 kts | 290° |
| 2026-05-04 18:33 | 48.54189 | 14.56228 | 37918 ft | 421 kts | 290° |
| 2026-05-04 18:33 | 48.56352 | 14.48009 | 37916 ft | 421 kts | 290° |
| 2026-05-04 18:34 | 48.58513 | 14.39790 | 37914 ft | 421 kts | 290° |
| 2026-05-04 18:34 | 48.60668 | 14.31557 | 37918 ft | 422 kts | 290° |
| 2026-05-04 18:35 | 48.62820 | 14.23298 | 37908 ft | 422 kts | 290° |
| 2026-05-04 18:35 | 48.64959 | 14.15042 | 37919 ft | 422 kts | 290° |
| 2026-05-04 18:36 | 48.67082 | 14.06822 | 37942 ft | 422 kts | 289° |
| 2026-05-04 18:36 | 48.69231 | 13.98499 | 37938 ft | 422 kts | 289° |
| 2026-05-04 18:37 | 48.71363 | 13.90220 | 37935 ft | 422 kts | 289° |
| 2026-05-04 18:37 | 48.73469 | 13.81984 | 37931 ft | 422 kts | 289° |
| 2026-05-04 18:38 | 48.75581 | 13.73681 | 37929 ft | 422 kts | 289° |
| 2026-05-04 18:38 | 48.78411 | 13.65863 | 37928 ft | 425 kts | 300° |
| 2026-05-04 18:39 | 48.81569 | 13.58273 | 37932 ft | 426 kts | 300° |
| 2026-05-04 18:39 | 48.84726 | 13.50655 | 37926 ft | 426 kts | 300° |
| 2026-05-04 18:40 | 48.87881 | 13.43025 | 37925 ft | 427 kts | 300° |
| 2026-05-04 18:40 | 48.91040 | 13.35376 | 37923 ft | 427 kts | 300° |
| 2026-05-04 18:41 | 48.94197 | 13.27717 | 37935 ft | 427 kts | 300° |
| 2026-05-04 18:41 | 48.97328 | 13.20100 | 37940 ft | 428 kts | 299° |
| 2026-05-04 18:42 | 49.00475 | 13.12420 | 37941 ft | 428 kts | 299° |
| 2026-05-04 18:42 | 49.03615 | 13.04717 | 37939 ft | 428 kts | 299° |
| 2026-05-04 18:43 | 49.06750 | 12.97009 | 37944 ft | 428 kts | 299° |
| 2026-05-04 18:43 | 49.09889 | 12.89289 | 37943 ft | 428 kts | 299° |
| 2026-05-04 18:44 | 49.13016 | 12.81563 | 37939 ft | 428 kts | 299° |
| 2026-05-04 18:44 | 49.16131 | 12.73821 | 37939 ft | 428 kts | 298° |
| 2026-05-04 18:45 | 49.19247 | 12.66068 | 37945 ft | 428 kts | 298° |
| 2026-05-04 18:45 | 49.22364 | 12.58312 | 37947 ft | 428 kts | 298° |
| 2026-05-04 18:46 | 49.25477 | 12.50539 | 37962 ft | 428 kts | 298° |
| 2026-05-04 18:46 | 49.28576 | 12.42764 | 37957 ft | 428 kts | 298° |
| 2026-05-04 18:47 | 49.31669 | 12.34977 | 37969 ft | 428 kts | 298° |
| 2026-05-04 18:47 | 49.34762 | 12.27192 | 37963 ft | 427 kts | 298° |
| 2026-05-04 18:48 | 49.37844 | 12.19395 | 37962 ft | 427 kts | 298° |
| 2026-05-04 18:48 | 49.40918 | 12.11594 | 37973 ft | 427 kts | 297° |
| 2026-05-04 18:49 | 49.43993 | 12.03784 | 37977 ft | 427 kts | 297° |
| 2026-05-04 18:49 | 49.47064 | 11.95971 | 37980 ft | 427 kts | 298° |
| 2026-05-04 18:50 | 49.50559 | 11.88533 | 37983 ft | 430 kts | 303° |
| 2026-05-04 18:50 | 49.54132 | 11.81159 | 37985 ft | 430 kts | 303° |
| 2026-05-04 18:51 | 49.57684 | 11.73820 | 38002 ft | 430 kts | 303° |
| 2026-05-04 18:51 | 49.61248 | 11.66400 | 38007 ft | 430 kts | 302° |
| 2026-05-04 18:52 | 49.64809 | 11.58968 | 37992 ft | 430 kts | 302° |
| 2026-05-04 18:52 | 49.67753 | 11.52795 | 37984 ft | 430 kts | 302° |
| 2026-05-04 18:53 | 49.71870 | 11.44160 | 37976 ft | 430 kts | 302° |
| 2026-05-04 18:53 | 49.74842 | 11.37912 | 37964 ft | 429 kts | 302° |
| 2026-05-04 18:54 | 49.78357 | 11.30507 | 37959 ft | 430 kts | 302° |
| 2026-05-04 18:54 | 49.81891 | 11.23030 | 37952 ft | 430 kts | 302° |
| 2026-05-04 18:55 | 49.85430 | 11.15512 | 37953 ft | 431 kts | 302° |
| 2026-05-04 18:55 | 49.90714 | 11.04263 | 37977 ft | 431 kts | 302° |
| 2026-05-04 18:56 | 49.94239 | 10.96736 | 37985 ft | 431 kts | 302° |
| 2026-05-04 18:56 | 49.97762 | 10.89218 | 37973 ft | 430 kts | 302° |
| 2026-05-04 18:57 | 50.01275 | 10.81686 | 37972 ft | 430 kts | 302° |
| 2026-05-04 18:57 | 50.04749 | 10.74192 | 37971 ft | 430 kts | 302° |
| 2026-05-04 18:58 | 50.08239 | 10.66635 | 37969 ft | 430 kts | 302° |
| 2026-05-04 18:58 | 50.11733 | 10.59073 | 37974 ft | 430 kts | 302° |
| 2026-05-04 18:59 | 50.15218 | 10.51502 | 37981 ft | 430 kts | 301° |
| 2026-05-04 18:59 | 50.18700 | 10.43903 | 37987 ft | 431 kts | 301° |
| 2026-05-04 19:00 | 50.22168 | 10.36280 | 37979 ft | 430 kts | 301° |
| 2026-05-04 19:00 | 50.23889 | 10.32453 | 37759 ft | 431 kts | 300° |
| 2026-05-04 19:00 | 50.25608 | 10.28615 | 37486 ft | 431 kts | 300° |
| 2026-05-04 19:01 | 50.27325 | 10.24778 | 37213 ft | 431 kts | 300° |
| 2026-05-04 19:01 | 50.29039 | 10.20941 | 36944 ft | 431 kts | 300° |
| 2026-05-04 19:01 | 50.30755 | 10.17091 | 36691 ft | 431 kts | 300° |
| 2026-05-04 19:01 | 50.32470 | 10.13232 | 36431 ft | 433 kts | 300° |
| 2026-05-04 19:02 | 50.34186 | 10.09361 | 36169 ft | 433 kts | 300° |
| 2026-05-04 19:02 | 50.35905 | 10.05486 | 35910 ft | 433 kts | 300° |
| 2026-05-04 19:02 | 50.37623 | 10.01610 | 35659 ft | 434 kts | 300° |
| 2026-05-04 19:02 | 50.39342 | 9.97727 | 35403 ft | 434 kts | 300° |
| 2026-05-04 19:03 | 50.41062 | 9.93840 | 35160 ft | 434 kts | 300° |
| 2026-05-04 19:03 | 50.42764 | 9.89993 | 34955 ft | 434 kts | 300° |
| 2026-05-04 19:03 | 50.46198 | 9.82200 | 34976 ft | 434 kts | 300° |
| 2026-05-04 19:04 | 50.49628 | 9.74399 | 34980 ft | 434 kts | 300° |
| 2026-05-04 19:04 | 50.53055 | 9.66577 | 34974 ft | 435 kts | 300° |
| 2026-05-04 19:05 | 50.56476 | 9.58732 | 34974 ft | 435 kts | 300° |
| 2026-05-04 19:05 | 50.59893 | 9.50883 | 34972 ft | 435 kts | 300° |
| 2026-05-04 19:06 | 50.63299 | 9.43018 | 34975 ft | 434 kts | 300° |
| 2026-05-04 19:06 | 50.66705 | 9.35160 | 34988 ft | 434 kts | 299° |
| 2026-05-04 19:07 | 50.70113 | 9.27274 | 34712 ft | 434 kts | 299° |
| 2026-05-04 19:07 | 50.71797 | 9.23370 | 34462 ft | 426 kts | 299° |
| 2026-05-04 19:07 | 50.73429 | 9.19586 | 34221 ft | 419 kts | 298° |
| 2026-05-04 19:08 | 50.75048 | 9.15823 | 34062 ft | 409 kts | 298° |
| 2026-05-04 19:08 | 50.76618 | 9.12169 | 33931 ft | 395 kts | 298° |
| 2026-05-04 19:08 | 50.78130 | 9.08645 | 33762 ft | 381 kts | 298° |
| 2026-05-04 19:08 | 50.79614 | 9.05167 | 32822 ft | 383 kts | 298° |
| 2026-05-04 19:09 | 50.81095 | 9.01679 | 32078 ft | 381 kts | 298° |
| 2026-05-04 19:09 | 50.82560 | 8.98225 | 31458 ft | 376 kts | 298° |
| 2026-05-04 19:09 | 50.84033 | 8.94843 | 30886 ft | 372 kts | 300° |
| 2026-05-04 19:09 | 50.85586 | 8.91582 | 30360 ft | 368 kts | 302° |
| 2026-05-04 19:10 | 50.87178 | 8.88439 | 29779 ft | 364 kts | 303° |
| 2026-05-04 19:10 | 50.88775 | 8.85364 | 29188 ft | 359 kts | 304° |
| 2026-05-04 19:10 | 50.90351 | 8.82331 | 28605 ft | 354 kts | 303° |
| 2026-05-04 19:10 | 50.91888 | 8.79338 | 28371 ft | 346 kts | 303° |
| 2026-05-04 19:11 | 50.93375 | 8.76402 | 28227 ft | 337 kts | 303° |
| 2026-05-04 19:11 | 50.94819 | 8.73515 | 27674 ft | 335 kts | 302° |
| 2026-05-04 19:11 | 50.96262 | 8.70598 | 26970 ft | 335 kts | 303° |
| 2026-05-04 19:11 | 50.97681 | 8.67726 | 26674 ft | 327 kts | 303° |
| 2026-05-04 19:12 | 50.99060 | 8.64941 | 26335 ft | 324 kts | 303° |
| 2026-05-04 19:12 | 51.02041 | 8.59617 | 25673 ft | 325 kts | 313° |
| 2026-05-04 19:12 | 51.03823 | 8.57403 | 25315 ft | 325 kts | 321° |
| 2026-05-04 19:13 | 51.05717 | 8.55450 | 24913 ft | 324 kts | 322° |
| 2026-05-04 19:13 | 51.07603 | 8.53504 | 24616 ft | 322 kts | 322° |
| 2026-05-04 19:13 | 51.09477 | 8.51564 | 24304 ft | 321 kts | 322° |
| 2026-05-04 19:13 | 51.11337 | 8.49627 | 23991 ft | 319 kts | 322° |
| 2026-05-04 19:14 | 51.13189 | 8.47700 | 23687 ft | 317 kts | 322° |
| 2026-05-04 19:14 | 51.15036 | 8.45785 | 23340 ft | 316 kts | 322° |
| 2026-05-04 19:14 | 51.16877 | 8.43872 | 22979 ft | 314 kts | 322° |
| 2026-05-04 19:14 | 51.18703 | 8.41961 | 22628 ft | 313 kts | 322° |
| 2026-05-04 19:15 | 51.20521 | 8.40058 | 22292 ft | 312 kts | 322° |
| 2026-05-04 19:15 | 51.22330 | 8.38163 | 21943 ft | 310 kts | 322° |
| 2026-05-04 19:15 | 51.24130 | 8.36280 | 21609 ft | 309 kts | 322° |
| 2026-05-04 19:15 | 51.25923 | 8.34405 | 21279 ft | 307 kts | 322° |
| 2026-05-04 19:16 | 51.27709 | 8.32538 | 20954 ft | 306 kts | 322° |
| 2026-05-04 19:16 | 51.29487 | 8.30677 | 20636 ft | 305 kts | 322° |
| 2026-05-04 19:16 | 51.31256 | 8.28819 | 20318 ft | 304 kts | 322° |
| 2026-05-04 19:16 | 51.33022 | 8.26960 | 20006 ft | 303 kts | 322° |
| 2026-05-04 19:17 | 51.34779 | 8.25107 | 19702 ft | 302 kts | 322° |
| 2026-05-04 19:17 | 51.36530 | 8.23261 | 19402 ft | 301 kts | 322° |
| 2026-05-04 19:17 | 51.38294 | 8.21454 | 19095 ft | 302 kts | 328° |
| 2026-05-04 19:17 | 51.40289 | 8.20335 | 18791 ft | 306 kts | 342° |
| 2026-05-04 19:18 | 51.42359 | 8.19535 | 18496 ft | 306 kts | 343° |
| 2026-05-04 19:18 | 51.44430 | 8.18763 | 18195 ft | 305 kts | 343° |
| 2026-05-04 19:18 | 51.46493 | 8.17996 | 17895 ft | 304 kts | 344° |
| 2026-05-04 19:18 | 51.48524 | 8.17226 | 17562 ft | 304 kts | 344° |
| 2026-05-04 19:19 | 51.50579 | 8.16432 | 17257 ft | 303 kts | 344° |
| 2026-05-04 19:19 | 51.52619 | 8.15639 | 16963 ft | 301 kts | 344° |
| 2026-05-04 19:19 | 51.54647 | 8.14830 | 16690 ft | 299 kts | 344° |
| 2026-05-04 19:19 | 51.56655 | 8.14012 | 16417 ft | 297 kts | 343° |
| 2026-05-04 19:20 | 51.58654 | 8.13196 | 16144 ft | 296 kts | 343° |
| 2026-05-04 19:20 | 51.60643 | 8.12381 | 15874 ft | 294 kts | 343° |
| 2026-05-04 19:20 | 51.62621 | 8.11567 | 15605 ft | 293 kts | 343° |
| 2026-05-04 19:20 | 51.64588 | 8.10741 | 15341 ft | 291 kts | 341° |
| 2026-05-04 19:21 | 51.66373 | 8.09305 | 15074 ft | 286 kts | 322° |
| 2026-05-04 19:21 | 51.67904 | 8.07315 | 14802 ft | 281 kts | 307° |
| 2026-05-04 19:21 | 51.68851 | 8.04640 | 14537 ft | 273 kts | 283° |
| 2026-05-04 19:21 | 51.69075 | 8.01661 | 14262 ft | 266 kts | 262° |
| 2026-05-04 19:22 | 51.68607 | 7.98821 | 14035 ft | 260 kts | 240° |
| 2026-05-04 19:22 | 51.67555 | 7.96487 | 13970 ft | 258 kts | 224° |
| 2026-05-04 19:22 | 51.66307 | 7.94400 | 13974 ft | 259 kts | 224° |
| 2026-05-04 19:22 | 51.65060 | 7.92295 | 13981 ft | 260 kts | 225° |
| 2026-05-04 19:23 | 51.63815 | 7.90181 | 13981 ft | 260 kts | 225° |
| 2026-05-04 19:23 | 51.62568 | 7.88071 | 13980 ft | 260 kts | 225° |
| 2026-05-04 19:23 | 51.61334 | 7.85988 | 13970 ft | 260 kts | 225° |
| 2026-05-04 19:23 | 51.60084 | 7.83885 | 13976 ft | 260 kts | 225° |
| 2026-05-04 19:24 | 51.58813 | 7.81752 | 13841 ft | 262 kts | 225° |
| 2026-05-04 19:24 | 51.57571 | 7.79674 | 13577 ft | 260 kts | 224° |
| 2026-05-04 19:24 | 51.56304 | 7.77559 | 13314 ft | 259 kts | 225° |
| 2026-05-04 19:24 | 51.55076 | 7.75507 | 13051 ft | 258 kts | 224° |
| 2026-05-04 19:25 | 51.53842 | 7.73440 | 12789 ft | 255 kts | 225° |
| 2026-05-04 19:25 | 51.52619 | 7.71390 | 12533 ft | 253 kts | 225° |
| 2026-05-04 19:25 | 51.51398 | 7.69344 | 12283 ft | 254 kts | 225° |
| 2026-05-04 19:25 | 51.50163 | 7.67276 | 12019 ft | 253 kts | 225° |
| 2026-05-04 19:26 | 51.48946 | 7.65243 | 11763 ft | 252 kts | 225° |
| 2026-05-04 19:26 | 51.47748 | 7.63247 | 11517 ft | 251 kts | 225° |
| 2026-05-04 19:26 | 51.46520 | 7.61205 | 11262 ft | 250 kts | 225° |
| 2026-05-04 19:26 | 51.45315 | 7.59205 | 11014 ft | 249 kts | 225° |
| 2026-05-04 19:27 | 51.44114 | 7.57210 | 10764 ft | 248 kts | 225° |
| 2026-05-04 19:27 | 51.42935 | 7.55250 | 10535 ft | 247 kts | 225° |
| 2026-05-04 19:27 | 51.41819 | 7.53163 | 10290 ft | 247 kts | 231° |
| 2026-05-04 19:27 | 51.40843 | 7.50912 | 10065 ft | 245 kts | 235° |
| 2026-05-04 19:28 | 51.39905 | 7.48635 | 9984 ft | 244 kts | 235° |
| 2026-05-04 19:28 | 51.38964 | 7.46370 | 9983 ft | 245 kts | 234° |
| 2026-05-04 19:28 | 51.38020 | 7.44104 | 9988 ft | 245 kts | 234° |
| 2026-05-04 19:28 | 51.37075 | 7.41834 | 9989 ft | 245 kts | 234° |
| 2026-05-04 19:29 | 51.36127 | 7.39562 | 9995 ft | 245 kts | 234° |
| 2026-05-04 19:29 | 51.35181 | 7.37290 | 9992 ft | 245 kts | 234° |
| 2026-05-04 19:29 | 51.34240 | 7.35025 | 9987 ft | 244 kts | 234° |
| 2026-05-04 19:29 | 51.33310 | 7.32788 | 9989 ft | 239 kts | 234° |
| 2026-05-04 19:30 | 51.32391 | 7.30583 | 9943 ft | 238 kts | 233° |
| 2026-05-04 19:30 | 51.31474 | 7.28392 | 9812 ft | 237 kts | 233° |
| 2026-05-04 19:30 | 51.30557 | 7.26210 | 9673 ft | 236 kts | 233° |
| 2026-05-04 19:30 | 51.29642 | 7.24034 | 9540 ft | 235 kts | 233° |
| 2026-05-04 19:31 | 51.28730 | 7.21864 | 9409 ft | 235 kts | 233° |
| 2026-05-04 19:31 | 51.27817 | 7.19698 | 9196 ft | 237 kts | 233° |
| 2026-05-04 19:31 | 51.26891 | 7.17518 | 8862 ft | 238 kts | 233° |
| 2026-05-04 19:31 | 51.25970 | 7.15352 | 8541 ft | 239 kts | 233° |
| 2026-05-04 19:32 | 51.25131 | 7.13048 | 8203 ft | 243 kts | 249° |
| 2026-05-04 19:32 | 51.25032 | 7.10351 | 7874 ft | 251 kts | 279° |
| 2026-05-04 19:32 | 51.25832 | 7.07861 | 7544 ft | 259 kts | 310° |
| 2026-05-04 19:32 | 51.27349 | 7.06275 | 7212 ft | 266 kts | 340° |
| 2026-05-04 19:33 | 51.29188 | 7.06051 | 6894 ft | 269 kts | 11° |
| 2026-05-04 19:33 | 51.30962 | 7.06979 | 6643 ft | 268 kts | 22° |
| 2026-05-04 19:33 | 51.32678 | 7.08107 | 6399 ft | 265 kts | 23° |
| 2026-05-04 19:33 | 51.34245 | 7.09595 | 6144 ft | 261 kts | 45° |
| 2026-05-04 19:34 | 51.35449 | 7.11753 | 5889 ft | 258 kts | 53° |
| 2026-05-04 19:34 | 51.36569 | 7.13980 | 5629 ft | 255 kts | 53° |
| 2026-05-04 19:34 | 51.37657 | 7.16208 | 5373 ft | 253 kts | 53° |
| 2026-05-04 19:34 | 51.38733 | 7.18431 | 5126 ft | 251 kts | 53° |
| 2026-05-04 19:35 | 51.39793 | 7.20630 | 5011 ft | 249 kts | 53° |
| 2026-05-04 19:35 | 51.40843 | 7.22847 | 5013 ft | 251 kts | 53° |
| 2026-05-04 19:35 | 51.41899 | 7.25082 | 5017 ft | 251 kts | 53° |
| 2026-05-04 19:35 | 51.43127 | 7.27039 | 5016 ft | 251 kts | 29° |
| 2026-05-04 19:36 | 51.44776 | 7.27801 | 5017 ft | 247 kts | 357° |
| 2026-05-04 19:36 | 51.46400 | 7.27137 | 4975 ft | 240 kts | 329° |
| 2026-05-04 19:36 | 51.47622 | 7.25439 | 4672 ft | 230 kts | 298° |
| 2026-05-04 19:36 | 51.48069 | 7.23048 | 4277 ft | 224 kts | 269° |
| 2026-05-04 19:37 | 51.48028 | 7.20546 | 3818 ft | 226 kts | 264° |
| 2026-05-04 19:37 | 51.47921 | 7.18009 | 3374 ft | 229 kts | 263° |
| 2026-05-04 19:37 | 51.47533 | 7.15576 | 2989 ft | 225 kts | 241° |
| 2026-05-04 19:37 | 51.46645 | 7.13516 | 2610 ft | 224 kts | 231° |
| 2026-05-04 19:38 | 51.45706 | 7.11527 | 2235 ft | 224 kts | 231° |
| 2026-05-04 19:38 | 51.44771 | 7.09540 | 2240 ft | 218 kts | 231° |
| 2026-05-04 19:38 | 51.43865 | 7.07614 | 2947 ft | 224 kts | 231° |
| 2026-05-04 19:38 | 51.42937 | 7.05641 | 3002 ft | 213 kts | 231° |
| 2026-05-04 19:39 | 51.42081 | 7.03819 | 3005 ft | 196 kts | 231° |
| 2026-05-04 19:39 | 51.41296 | 7.02152 | 3024 ft | 182 kts | 231° |
| 2026-05-04 19:39 | 51.40549 | 7.00568 | 3013 ft | 176 kts | 231° |
| 2026-05-04 19:39 | 51.39816 | 6.99014 | 3010 ft | 174 kts | 231° |
| 2026-05-04 19:40 | 51.39086 | 6.97469 | 3013 ft | 174 kts | 231° |
| 2026-05-04 19:40 | 51.38602 | 6.96446 | 2963 ft | 174 kts | 231° |
| 2026-05-04 19:40 | 51.37872 | 6.94900 | 2794 ft | 174 kts | 231° |
| 2026-05-04 19:40 | 51.37144 | 6.93360 | 2574 ft | 173 kts | 231° |
| 2026-05-04 19:41 | 51.36423 | 6.91836 | 2357 ft | 169 kts | 231° |
| 2026-05-04 19:41 | 51.35711 | 6.90333 | 2130 ft | 170 kts | 231° |
| 2026-05-04 19:41 | 51.34997 | 6.88828 | 1880 ft | 169 kts | 231° |
| 2026-05-04 19:41 | 51.34071 | 6.86833 | 1515 ft | 169 kts | 231° |
| 2026-05-04 19:42 | 51.33611 | 6.85828 | 1374 ft | 161 kts | 231° |
| 2026-05-04 19:42 | 51.32997 | 6.84494 | 1164 ft | 139 kts | 230° |
| 2026-05-04 19:42 | 51.32424 | 6.83327 | 922 ft | 130 kts | 227° |
| 2026-05-04 19:42 | 51.31893 | 6.82183 | 826 ft | 127 kts | 229° |
| 2026-05-04 19:43 | 51.31348 | 6.81061 | 702 ft | 126 kts | 229° |
| 2026-05-04 19:43 | 51.30807 | 6.79976 | 488 ft | 122 kts | 227° |
| 2026-05-04 19:43 | 51.30300 | 6.78868 | 363 ft | 125 kts | 230° |
| 2026-05-04 19:43 | 51.29770 | 6.77785 | 200 ft | 121 kts | 227° |
| 2026-05-04 19:44 | 51.29267 | 6.76748 | 125 ft | 104 kts | 230° |
| 2026-05-04 19:44 | 51.28954 | 6.76107 | 131 ft | 29 kts | 233° |
| 2026-05-04 19:44 | 51.28825 | 6.75841 | 122 ft | 31 kts | 227° |
| 2026-05-04 19:44 | 51.28640 | 6.75681 | 126 ft | 29 kts | 186° |
| 2026-05-04 19:45 | 51.28515 | 6.75720 | 121 ft | 0 kts | 154° |
| 2026-05-04 19:47 | 51.28499 | 6.75733 | 124 ft | 7 kts | 152° |
| 2026-05-04 19:47 | 51.28459 | 6.75780 | 122 ft | 4 kts | 142° |
| 2026-05-04 19:48 | 51.28444 | 6.75798 | 123 ft | 0 kts | 142° |
| 2026-05-04 19:51 | 51.28442 | 6.75801 | 123 ft | 2 kts | 142° |
| 2026-05-04 19:52 | 51.28417 | 6.75832 | 124 ft | 7 kts | 141° |
| 2026-05-04 19:52 | 51.28397 | 6.75859 | 123 ft | 0 kts | 141° |
| 2026-05-04 19:52 | 51.28387 | 6.75871 | 121 ft | 10 kts | 141° |
| 2026-05-04 19:52 | 51.28289 | 6.75990 | 121 ft | 20 kts | 145° |
| 2026-05-04 19:53 | 51.28222 | 6.76058 | 126 ft | 0 kts | 147° |
| 2026-05-04 19:55 | 51.28220 | 6.76060 | 126 ft | 3 kts | 147° |
| 2026-05-04 19:55 | 51.28174 | 6.76099 | 123 ft | 8 kts | 169° |
| 2026-05-04 19:55 | 51.28151 | 6.76061 | 125 ft | 0 kts | 231° |
| 2026-05-04 19:55 | 51.28150 | 6.76060 | 125 ft | 0 kts | 231° |
| 2026-05-04 19:56 | 51.28149 | 6.76058 | 125 ft | 0 kts | 231° |
| 2026-05-04 19:56 | 51.28118 | 6.76026 | 127 ft | 10 kts | 187° |
| 2026-05-04 19:56 | 51.28049 | 6.76051 | 129 ft | 10 kts | 176° |
| 2026-05-04 19:56 | 51.27971 | 6.76048 | 129 ft | 13 kts | 182° |
| 2026-05-04 19:57 | 51.27942 | 6.76084 | 129 ft | 4 kts | 73° |
| 2026-05-04 19:57 | 51.27944 | 6.76136 | 126 ft | 9 kts | 90° |